createdAt,value
2024-04-25T00:02:27.160Z,94068.44
2024-04-25T00:04:56.977Z,94065.50
2024-04-25T00:07:26.912Z,94082.56
2024-04-25T00:09:59.311Z,94069.69
2024-04-25T00:12:29.024Z,94011.41
2024-04-25T00:14:58.803Z,94069.72
2024-04-25T00:17:29.228Z,94070.25
2024-04-25T00:19:58.958Z,94067.09
2024-04-25T00:22:28.979Z,94066.56
2024-04-25T00:25:01.307Z,94070.50
2024-04-25T00:27:31.055Z,94066.84
2024-04-25T00:30:01.178Z,94066.28
2024-04-25T00:32:31.534Z,94067.88
2024-04-25T00:35:01.941Z,94064.44
2024-04-25T00:37:31.818Z,94071.00
2024-04-25T00:40:05.903Z,94059.19
2024-04-25T00:42:35.687Z,94076.50
2024-04-25T00:45:05.476Z,94075.16
2024-04-25T00:47:36.436Z,94076.91
2024-04-25T00:50:08.454Z,94074.31
2024-04-25T00:52:38.728Z,94067.94
2024-04-25T00:55:11.893Z,94071.16
2024-04-25T00:57:42.194Z,94058.56
2024-04-25T01:00:14.304Z,94058.50
2024-04-25T01:02:45.124Z,94052.22
2024-04-25T01:05:16.874Z,94055.94
2024-04-25T01:07:46.767Z,94052.06
2024-04-25T01:10:19.289Z,94042.09
2024-04-25T01:12:51.053Z,94052.06
2024-04-25T01:15:20.858Z,94058.16
2024-04-25T01:17:50.699Z,94050.25
2024-04-25T01:20:20.660Z,94053.34
2024-04-25T01:22:53.041Z,94045.75
2024-04-25T01:25:26.672Z,94050.69
2024-04-25T01:27:57.499Z,94041.72
2024-04-25T01:30:28.489Z,94040.84
2024-04-25T01:33:01.046Z,94038.03
2024-04-25T01:35:33.234Z,94039.63
2024-04-25T01:38:04.177Z,94028.28
2024-04-25T01:40:36.619Z,94034.03
2024-04-25T01:43:06.691Z,94026.78
2024-04-25T01:45:36.431Z,94028.66
2024-04-25T01:48:06.480Z,94032.00
2024-04-25T01:50:38.395Z,94030.50
2024-04-25T01:53:08.285Z,94039.16
2024-04-25T01:55:40.796Z,94046.25
2024-04-25T01:58:10.644Z,94056.44
2024-04-25T02:00:40.370Z,94058.31
2024-04-25T02:03:10.162Z,94016.56
2024-04-25T02:05:43.100Z,94060.00
2024-04-25T02:08:14.937Z,94074.56
2024-04-25T02:10:47.356Z,94070.28
2024-04-25T02:13:17.367Z,94068.50
2024-04-25T02:15:47.153Z,94081.84
2024-04-25T02:18:17.086Z,94071.34
2024-04-25T02:21:02.673Z,94060.88
2024-04-25T02:23:48.095Z,94066.38
2024-04-25T02:26:20.611Z,94059.03
2024-04-25T02:28:50.479Z,94055.53
2024-04-25T02:31:22.337Z,94069.31
2024-04-25T02:33:52.173Z,94072.41
2024-04-25T02:36:21.981Z,94064.72
2024-04-25T02:38:51.836Z,94059.88
2024-04-25T02:41:24.257Z,94048.50
2024-04-25T02:43:54.084Z,94028.78
2024-04-25T02:46:23.215Z,94054.09
2024-04-25T02:48:53.129Z,94046.16
2024-04-25T02:51:20.349Z,94042.56
2024-04-25T02:53:50.107Z,94047.69
2024-04-25T02:56:17.828Z,94046.69
2024-04-25T02:58:50.333Z,94061.59
2024-04-25T03:01:17.589Z,94040.50
2024-04-25T03:03:47.777Z,94041.66
2024-04-25T03:06:15.004Z,94041.44
2024-04-25T03:08:44.860Z,94054.44
2024-04-25T03:11:12.290Z,94058.84
2024-04-25T03:13:42.294Z,94054.81
2024-04-25T03:16:12.222Z,94051.75
2024-04-25T03:18:42.057Z,94053.63
2024-04-25T03:21:09.593Z,94049.88
2024-04-25T03:23:41.720Z,94054.47
2024-04-25T03:26:09.246Z,94058.31
2024-04-25T03:28:40.149Z,94008.25
2024-04-25T03:31:10.010Z,94068.69
2024-04-25T03:33:40.335Z,94069.94
2024-04-25T03:36:10.495Z,94038.66
2024-04-25T03:38:40.355Z,94084.28
2024-04-25T03:41:10.271Z,94088.44
2024-04-25T03:43:39.956Z,94087.78
2024-04-25T03:46:11.563Z,94077.88
2024-04-25T03:48:44.386Z,94086.00
2024-04-25T03:51:14.508Z,94094.34
2024-04-25T03:53:44.358Z,94081.50
2024-04-25T03:56:14.090Z,94081.22
2024-04-25T03:58:44.179Z,94080.78
2024-04-25T04:01:13.951Z,94008.88
2024-04-25T04:03:46.527Z,94076.59
2024-04-25T04:06:16.343Z,94079.53
2024-04-25T04:08:46.200Z,94079.41
2024-04-25T04:11:16.071Z,94080.44
2024-04-25T04:13:45.909Z,94067.97
2024-04-25T04:16:16.057Z,94071.06
2024-04-25T04:18:48.442Z,94069.31
2024-04-25T04:21:18.269Z,94072.69
2024-04-25T04:23:49.238Z,94083.41
2024-04-25T04:26:19.227Z,94089.13
2024-04-25T04:28:49.111Z,94081.41
2024-04-25T04:31:18.947Z,94098.91
2024-04-25T04:33:51.493Z,94100.81
2024-04-25T04:36:21.344Z,94097.91
2024-04-25T04:38:51.094Z,94079.72
2024-04-25T04:41:20.931Z,94096.34
2024-04-25T04:43:51.595Z,94093.13
2024-04-25T04:46:21.439Z,94084.69
2024-04-25T04:48:54.053Z,94094.50
2024-04-25T04:51:23.958Z,94092.50
2024-04-25T04:53:53.814Z,94097.41
2024-04-25T04:56:23.652Z,94099.41
2024-04-25T04:58:53.485Z,94092.25
2024-04-25T05:01:23.410Z,94102.91
2024-04-25T05:03:55.994Z,94098.00
2024-04-25T05:06:26.250Z,94099.41
2024-04-25T05:08:56.215Z,94099.16
2024-04-25T05:11:26.534Z,94095.00
2024-04-25T05:13:56.956Z,94098.66
2024-04-25T05:16:26.893Z,94111.53
2024-04-25T05:18:59.405Z,94101.78
2024-04-25T05:21:32.103Z,94106.50
2024-04-25T05:24:02.396Z,94100.94
2024-04-25T05:26:32.347Z,94117.09
2024-04-25T05:29:02.995Z,94103.03
2024-04-25T05:31:33.502Z,94094.31
2024-04-25T05:34:06.079Z,94101.31
2024-04-25T05:36:37.000Z,94095.56
2024-04-25T05:39:06.903Z,94098.56
2024-04-25T05:41:36.794Z,94107.63
2024-04-25T05:44:07.891Z,94104.56
2024-04-25T05:46:38.930Z,94110.25
2024-04-25T05:49:11.534Z,94106.72
2024-04-25T05:51:41.286Z,94099.34
2024-04-25T05:54:11.116Z,94098.00
2024-04-25T05:56:40.965Z,94096.19
2024-04-25T05:59:11.011Z,94092.66
2024-04-25T06:01:40.843Z,94089.84
2024-04-25T06:04:13.943Z,94098.22
2024-04-25T06:06:43.747Z,94098.28
2024-04-25T06:09:13.921Z,94096.72
2024-04-25T06:11:43.924Z,94091.16
2024-04-25T06:14:13.902Z,94088.78
2024-04-25T06:16:43.890Z,94098.09
2024-04-25T06:19:16.408Z,94093.44
2024-04-25T06:21:46.248Z,94057.84
2024-04-25T06:24:16.383Z,94098.63
2024-04-25T06:26:46.327Z,94094.81
2024-04-25T06:29:16.247Z,94092.44
2024-04-25T06:31:46.242Z,94093.25
2024-04-25T06:34:18.945Z,94089.03
2024-04-25T06:36:50.472Z,94083.59
2024-04-25T06:39:20.367Z,94111.28
2024-04-25T06:41:54.243Z,94090.75
2024-04-25T06:44:32.290Z,94096.72
2024-04-25T06:47:07.551Z,94092.41
2024-04-25T06:49:40.347Z,94088.38
2024-04-25T06:52:10.238Z,94100.69
2024-04-25T06:54:40.146Z,94099.09
2024-04-25T06:57:09.845Z,94096.28
2024-04-25T06:59:43.807Z,94102.34
2024-04-25T07:02:18.436Z,94102.75
2024-04-25T07:04:51.134Z,94100.34
2024-04-25T07:07:20.917Z,94096.47
2024-04-25T07:09:50.751Z,94099.84
2024-04-25T07:12:20.551Z,94093.38
2024-04-25T07:14:50.370Z,94107.53
2024-04-25T07:17:20.351Z,94054.34
2024-04-25T07:19:53.225Z,94092.91
2024-04-25T07:22:22.977Z,94098.00
2024-04-25T07:24:52.853Z,94096.41
2024-04-25T07:27:22.859Z,94098.47
2024-04-25T07:29:52.823Z,94107.94
2024-04-25T07:32:22.767Z,94109.53
2024-04-25T07:34:55.285Z,94116.97
2024-04-25T07:37:27.306Z,94068.69
2024-04-25T07:39:58.045Z,94119.19
2024-04-25T07:42:28.412Z,94119.75
2024-04-25T07:44:58.750Z,94125.06
2024-04-25T07:47:28.766Z,94125.69
2024-04-25T07:50:01.767Z,94119.19
2024-04-25T07:52:31.607Z,94129.13
2024-04-25T07:55:01.970Z,94129.56
2024-04-25T07:57:31.900Z,94057.38
2024-04-25T08:00:01.708Z,94128.88
2024-04-25T08:02:31.741Z,93928.03
2024-04-25T08:05:04.445Z,94117.91
2024-04-25T08:07:34.356Z,94116.84
2024-04-25T08:10:04.156Z,94131.53
2024-04-25T08:12:35.052Z,94130.25
2024-04-25T08:15:04.910Z,94130.50
2024-04-25T08:17:34.764Z,94128.56
2024-04-25T08:20:07.796Z,94133.56
2024-04-25T08:22:37.548Z,94133.66
2024-04-25T08:25:07.915Z,94127.41
2024-04-25T08:27:39.677Z,94128.38
2024-04-25T08:30:10.844Z,94130.72
2024-04-25T08:32:41.058Z,94132.38
2024-04-25T08:35:13.701Z,94131.91
2024-04-25T08:37:43.861Z,94140.03
2024-04-25T08:40:14.326Z,94142.63
2024-04-25T08:42:49.606Z,94086.03
2024-04-25T08:45:19.750Z,94137.84
2024-04-25T08:47:52.445Z,94134.06
2024-04-25T08:50:26.794Z,94135.44
2024-04-25T08:52:58.518Z,94130.25
2024-04-25T08:55:29.340Z,94122.72
2024-04-25T08:58:00.414Z,94114.75
2024-04-25T09:00:30.513Z,94115.34
2024-04-25T09:03:01.968Z,94117.22
2024-04-25T09:05:37.276Z,94106.81
2024-04-25T09:08:07.813Z,94118.81
2024-04-25T09:10:44.367Z,94123.72
2024-04-25T09:13:14.393Z,94116.94
2024-04-25T09:15:44.752Z,94118.22
2024-04-25T09:18:15.255Z,94076.72
2024-04-25T09:20:48.497Z,94113.56
2024-04-25T09:23:18.540Z,94112.09
2024-04-25T09:25:48.510Z,94107.69
2024-04-25T09:28:18.382Z,94114.25
2024-04-25T09:30:48.341Z,94116.09
2024-04-25T09:33:22.462Z,94112.03
2024-04-25T09:35:55.363Z,94107.47
2024-04-25T09:38:25.205Z,94084.00
2024-04-25T09:40:57.144Z,94106.59
2024-04-25T09:43:28.268Z,94108.44
2024-04-25T09:46:02.741Z,94105.59
2024-04-25T09:48:36.893Z,94103.56
2024-04-25T09:51:17.164Z,94097.44
2024-04-25T09:53:55.610Z,94097.06
2024-04-25T09:56:30.232Z,94088.47
2024-04-25T09:59:06.289Z,94099.69
2024-04-25T10:01:38.358Z,94079.34
2024-04-25T10:04:08.941Z,94088.03
2024-04-25T10:06:42.355Z,94093.56
2024-04-25T10:09:12.176Z,94097.16
2024-04-25T10:11:43.121Z,94040.88
2024-04-25T10:14:13.026Z,94100.09
2024-04-25T10:16:43.159Z,94106.38
2024-04-25T10:19:13.067Z,94093.09
2024-04-25T10:21:51.809Z,94088.63
2024-04-25T10:24:25.150Z,94097.84
2024-04-25T10:26:54.958Z,94101.44
2024-04-25T10:29:33.730Z,94093.84
2024-04-25T10:32:03.535Z,94105.50
2024-04-25T10:34:30.740Z,94111.56
2024-04-25T10:37:03.322Z,94106.41
2024-04-25T10:39:33.093Z,94106.13
2024-04-25T10:42:02.829Z,94116.47
2024-04-25T10:44:32.650Z,94107.19
2024-04-25T10:47:02.525Z,94104.88
2024-04-25T10:49:32.343Z,94110.69
2024-04-25T10:52:08.506Z,94110.78
2024-04-25T10:54:38.480Z,94110.00
2024-04-25T10:57:08.967Z,94058.16
2024-04-25T10:59:38.684Z,94113.28
2024-04-25T11:02:10.061Z,94104.97
2024-04-25T11:04:41.292Z,94104.16
2024-04-25T11:07:14.588Z,94114.13
2024-04-25T11:09:44.473Z,94112.25
2024-04-25T11:12:14.224Z,94115.94
2024-04-25T11:14:44.251Z,94109.31
2024-04-25T11:17:16.902Z,94114.88
2024-04-25T11:19:49.966Z,94113.28
2024-04-25T11:22:30.985Z,94075.81
2024-04-25T11:25:17.352Z,94099.25
2024-04-25T11:27:47.178Z,94111.13
2024-04-25T11:30:17.066Z,94104.09
2024-04-25T11:32:48.950Z,94100.59
2024-04-25T11:35:23.424Z,94097.84
2024-04-25T11:37:58.394Z,94118.69
2024-04-25T11:40:37.209Z,94120.47
2024-04-25T11:43:07.966Z,94122.88
2024-04-25T11:45:39.054Z,94124.09
2024-04-25T11:48:12.123Z,94124.09
2024-04-25T11:50:42.324Z,94116.56
2024-04-25T11:53:14.988Z,94120.25
2024-04-25T11:55:46.443Z,94124.59
2024-04-25T11:58:16.628Z,94122.50
2024-04-25T12:00:49.530Z,94116.13
2024-04-25T12:03:19.914Z,94117.91
2024-04-25T12:05:50.028Z,94122.22
2024-04-25T12:08:22.519Z,94119.63
2024-04-25T12:10:54.568Z,94130.44
2024-04-25T12:13:24.540Z,94137.47
2024-04-25T12:15:54.374Z,94074.41
2024-04-25T12:18:27.390Z,94120.50
2024-04-25T12:21:00.608Z,94122.91
2024-04-25T12:23:35.346Z,94120.41
2024-04-25T12:26:05.727Z,94119.88
2024-04-25T12:28:35.812Z,94132.16
2024-04-25T12:31:08.305Z,94118.22
2024-04-25T12:33:39.044Z,94123.91
2024-04-25T12:36:09.478Z,94126.53
2024-04-25T12:38:41.849Z,94118.13
2024-04-25T12:41:11.780Z,94129.72
2024-04-25T12:43:41.631Z,94119.34
2024-04-25T12:46:11.499Z,94115.94
2024-04-25T12:48:41.474Z,94114.72
2024-04-25T12:51:11.340Z,94118.50
2024-04-25T12:53:44.161Z,94124.13
2024-04-25T12:56:14.346Z,94117.44
2024-04-25T12:58:42.619Z,94115.56
2024-04-25T13:01:12.827Z,94113.47
2024-04-25T13:03:43.871Z,94114.78
2024-04-25T13:06:13.602Z,94113.84
2024-04-25T13:08:46.043Z,94106.91
2024-04-25T13:11:16.720Z,94041.59
2024-04-25T13:13:46.613Z,94099.69
2024-04-25T13:16:17.325Z,94097.09
2024-04-25T13:18:47.534Z,94084.84
2024-04-25T13:21:17.563Z,94107.94
2024-04-25T13:23:50.210Z,94097.78
2024-04-25T13:26:25.646Z,94110.09
2024-04-25T13:28:55.591Z,94106.88
2024-04-25T13:31:27.189Z,94108.63
2024-04-25T13:33:57.854Z,94124.44
2024-04-25T13:36:28.587Z,94131.28
2024-04-25T13:39:01.298Z,94124.88
2024-04-25T13:41:31.531Z,94117.66
2024-04-25T13:44:01.307Z,94117.25
2024-04-25T13:46:32.068Z,94122.78
2024-04-25T13:49:02.241Z,94123.28
2024-04-25T13:51:32.341Z,94087.75
2024-04-25T13:54:08.031Z,94123.63
2024-04-25T13:56:38.062Z,94115.78
2024-04-25T13:59:07.892Z,94112.31
2024-04-25T14:01:37.743Z,94122.56
2024-04-25T14:04:08.009Z,94126.16
2024-04-25T14:06:42.426Z,94132.47
2024-04-25T14:09:15.237Z,94126.19
2024-04-25T14:11:46.913Z,94125.06
2024-04-25T14:14:21.861Z,94123.81
2024-04-25T14:16:54.000Z,94140.16
2024-04-25T14:19:24.317Z,94133.19
2024-04-25T14:21:54.291Z,94096.13
2024-04-25T14:24:28.539Z,94130.16
2024-04-25T14:27:14.700Z,94139.63
2024-04-25T14:29:45.266Z,94103.66
2024-04-25T14:32:15.198Z,94139.44
2024-04-25T14:34:45.387Z,94141.91
2024-04-25T14:37:18.114Z,94133.88
2024-04-25T14:39:50.711Z,94134.69
2024-04-25T14:42:21.138Z,94125.38
2024-04-25T14:44:51.644Z,94131.69
2024-04-25T14:47:21.465Z,94124.28
2024-04-25T14:49:51.348Z,94137.03
2024-04-25T14:52:21.175Z,94134.34
2024-04-25T14:54:53.682Z,94137.81
2024-04-25T14:57:23.935Z,94143.94
2024-04-25T14:59:53.936Z,94146.44
2024-04-25T15:02:23.978Z,94133.53
2024-04-25T15:04:56.168Z,94140.94
2024-04-25T15:07:26.009Z,94130.38
2024-04-25T15:09:58.442Z,94144.06
2024-04-25T15:12:30.252Z,94142.28
2024-04-25T15:15:08.410Z,94141.97
2024-04-25T15:17:43.210Z,94146.38
2024-04-25T15:20:13.346Z,94152.25
2024-04-25T15:22:43.048Z,94152.38
2024-04-25T15:25:15.450Z,94160.50
2024-04-25T15:27:45.343Z,94158.69
2024-04-25T15:30:15.589Z,94166.53
2024-04-25T15:32:45.538Z,94165.53
2024-04-25T15:35:15.647Z,94159.75
2024-04-25T15:37:45.515Z,94162.81
2024-04-25T15:40:18.268Z,94164.53
2024-04-25T15:42:49.761Z,94174.81
2024-04-25T15:45:19.816Z,94181.59
2024-04-25T15:47:49.745Z,94182.41
2024-04-25T15:50:19.763Z,94182.41
2024-04-25T15:52:49.585Z,94188.69
2024-04-25T15:55:22.105Z,94189.47
2024-04-25T15:57:53.598Z,94186.41
2024-04-25T16:00:23.360Z,94193.19
2024-04-25T16:02:53.122Z,94159.22
2024-04-25T16:05:22.914Z,94181.81
2024-04-25T16:07:52.712Z,94153.09
2024-04-25T16:10:25.383Z,94194.72
2024-04-25T16:12:55.457Z,94197.38
2024-04-25T16:15:25.329Z,94190.06
2024-04-25T16:17:55.046Z,94190.69
2024-04-25T16:20:24.903Z,94198.59
2024-04-25T16:22:56.302Z,94200.16
2024-04-25T16:25:28.782Z,94201.59
2024-04-25T16:27:58.578Z,94202.59
2024-04-25T16:30:28.719Z,94207.16
2024-04-25T16:32:58.619Z,94161.75
2024-04-25T16:35:28.497Z,94210.97
2024-04-25T16:37:58.408Z,94192.84
2024-04-25T16:40:32.957Z,94212.50
2024-04-25T16:43:02.666Z,94216.56
2024-04-25T16:45:32.389Z,94209.75
2024-04-25T16:48:02.257Z,94221.09
2024-04-25T16:50:32.232Z,94229.28
2024-04-25T16:53:02.033Z,94234.09
2024-04-25T16:55:34.472Z,94242.72
2024-04-25T16:58:04.211Z,94240.22
2024-04-25T17:00:34.015Z,94249.84
2024-04-25T17:03:04.119Z,94256.41
2024-04-25T17:05:34.228Z,94246.69
2024-04-25T17:08:04.570Z,94256.06
2024-04-25T17:10:37.085Z,94243.16
2024-04-25T17:13:06.953Z,94259.59
2024-04-25T17:15:36.904Z,94262.56
2024-04-25T17:18:06.902Z,94262.88
2024-04-25T17:20:37.015Z,94264.94
2024-04-25T17:23:06.978Z,94274.53
2024-04-25T17:25:39.338Z,94278.31
2024-04-25T17:28:09.137Z,94278.25
2024-04-25T17:30:39.036Z,94283.13
2024-04-25T17:33:09.253Z,94294.16
2024-04-25T17:35:39.126Z,94292.81
2024-04-25T17:38:09.417Z,94301.28
2024-04-25T17:40:41.969Z,94301.50
2024-04-25T17:43:11.739Z,94306.97
2024-04-25T17:45:41.458Z,94300.66
2024-04-25T17:48:11.587Z,94304.63
2024-04-25T17:50:41.457Z,94306.78
2024-04-25T17:53:11.205Z,94315.47
2024-04-25T17:55:43.894Z,94336.00
2024-04-25T17:58:13.662Z,94286.56
2024-04-25T18:00:43.409Z,94337.97
2024-04-25T18:03:13.270Z,94337.09
2024-04-25T18:05:43.554Z,94347.50
2024-04-25T18:08:15.329Z,94355.97
2024-04-25T18:10:47.960Z,94359.88
2024-04-25T18:13:17.860Z,94359.56
2024-04-25T18:15:47.663Z,94363.00
2024-04-25T18:18:20.362Z,94366.34
2024-04-25T18:20:50.492Z,94347.38
2024-04-25T18:23:20.339Z,94378.53
2024-04-25T18:25:52.801Z,94361.03
2024-04-25T18:28:23.547Z,94383.13
2024-04-25T18:30:53.351Z,94382.19
2024-04-25T18:33:23.208Z,94389.78
2024-04-25T18:35:54.423Z,94388.50
2024-04-25T18:38:24.421Z,94390.41
2024-04-25T18:40:56.966Z,94403.09
2024-04-25T18:43:26.846Z,94405.69
2024-04-25T18:45:56.708Z,94396.47
2024-04-25T18:48:26.535Z,94420.53
2024-04-25T18:50:56.391Z,94309.22
2024-04-25T18:53:26.286Z,94343.94
2024-04-25T18:55:58.956Z,94414.69
2024-04-25T18:58:29.965Z,94405.09
2024-04-25T19:00:59.794Z,94416.31
2024-04-25T19:03:29.857Z,94418.94
2024-04-25T19:05:59.723Z,94419.44
2024-04-25T19:08:29.994Z,94420.16
2024-04-25T19:11:02.489Z,94435.41
2024-04-25T19:13:32.256Z,94442.25
2024-04-25T19:16:01.975Z,94440.19
2024-04-25T19:18:31.794Z,94460.47
2024-04-25T19:21:03.440Z,94401.28
2024-04-25T19:23:33.325Z,94452.72
2024-04-25T19:26:06.038Z,94455.63
2024-04-25T19:28:35.804Z,94455.44
2024-04-25T19:31:05.711Z,94461.03
2024-04-25T19:33:37.026Z,94472.38
2024-04-25T19:36:07.709Z,94474.84
2024-04-25T19:38:37.555Z,94436.88
2024-04-25T19:41:11.229Z,94464.03
2024-04-25T19:43:40.983Z,94457.28
2024-04-25T19:46:13.551Z,94468.13
2024-04-25T19:48:43.396Z,94475.50
2024-04-25T19:51:13.240Z,94481.66
2024-04-25T19:53:44.604Z,94476.31
2024-04-25T19:56:17.120Z,94483.63
2024-04-25T19:58:46.959Z,94487.66
2024-04-25T20:01:17.973Z,94489.69
2024-04-25T20:03:48.794Z,94488.44
2024-04-25T20:06:20.710Z,94483.41
2024-04-25T20:08:50.894Z,94493.81
2024-04-25T20:11:24.549Z,94491.97
2024-04-25T20:13:54.454Z,94489.06
2024-04-25T20:16:24.455Z,94490.44
2024-04-25T20:19:10.055Z,94487.50
2024-04-25T20:21:43.273Z,94470.28
2024-04-25T20:24:13.138Z,94492.81
2024-04-25T20:26:45.709Z,94488.03
2024-04-25T20:29:15.510Z,94499.66
2024-04-25T20:31:45.311Z,94505.47
2024-04-25T20:34:15.134Z,94507.88
2024-04-25T20:36:46.884Z,94514.84
2024-04-25T20:39:16.692Z,94515.84
2024-04-25T20:41:49.724Z,94500.81
2024-04-25T20:44:19.888Z,94520.28
2024-04-25T20:46:49.788Z,94514.00
2024-04-25T20:49:19.656Z,94519.09
2024-04-25T20:51:49.436Z,94518.75
2024-04-25T20:54:19.264Z,94523.25
2024-04-25T20:56:51.781Z,94525.88
2024-04-25T20:59:21.703Z,94528.25
2024-04-25T21:01:51.528Z,94526.03
2024-04-25T21:04:21.533Z,94524.22
2024-04-25T21:06:51.537Z,94528.75
2024-04-25T21:09:21.414Z,94528.25
2024-04-25T21:11:53.819Z,94525.50
2024-04-25T21:14:23.633Z,94528.00
2024-04-25T21:16:53.579Z,94461.28
2024-04-25T21:19:24.012Z,94509.41
2024-04-25T21:21:54.005Z,94541.25
2024-04-25T21:24:23.820Z,94533.78
2024-04-25T21:26:56.426Z,94545.25
2024-04-25T21:29:26.389Z,94549.56
2024-04-25T21:31:56.429Z,94543.25
2024-04-25T21:34:26.404Z,94538.94
2024-04-25T21:36:56.155Z,94546.16
2024-04-25T21:39:25.946Z,94544.56
2024-04-25T21:41:58.449Z,94551.50
2024-04-25T21:44:28.253Z,94555.00
2024-04-25T21:46:58.042Z,94554.50
2024-04-25T21:49:27.918Z,94556.34
2024-04-25T21:51:57.972Z,94560.78
2024-04-25T21:54:27.775Z,94555.69
2024-04-25T21:57:01.413Z,94556.56
2024-04-25T21:59:31.252Z,94552.38
2024-04-25T22:02:01.545Z,94494.34
2024-04-25T22:04:31.236Z,94555.00
2024-04-25T22:07:01.062Z,94546.88
2024-04-25T22:09:30.868Z,94488.22
2024-04-25T22:12:03.416Z,94505.34
2024-04-25T22:14:33.212Z,94544.94
2024-04-25T22:17:03.208Z,94549.47
2024-04-25T22:19:33.027Z,94545.94
2024-04-25T22:22:02.963Z,94552.31
2024-04-25T22:24:32.797Z,94547.09
2024-04-25T22:27:05.260Z,94542.22
2024-04-25T22:29:35.100Z,94550.16
2024-04-25T22:32:05.073Z,94553.44
2024-04-25T22:34:34.923Z,94553.91
2024-04-25T22:37:04.786Z,94552.53
2024-04-25T22:39:34.545Z,94551.59
2024-04-25T22:42:07.478Z,94553.69
2024-04-25T22:44:37.835Z,94553.28
2024-04-25T22:47:08.005Z,94554.84
2024-04-25T22:49:37.784Z,94556.34
2024-04-25T22:52:07.903Z,94562.94
2024-04-25T22:54:37.769Z,94562.31
2024-04-25T22:57:10.287Z,94563.69
2024-04-25T22:59:40.125Z,94566.50
2024-04-25T23:02:10.074Z,94564.97
2024-04-25T23:04:40.078Z,94551.44
2024-04-25T23:07:09.991Z,94566.50
2024-04-25T23:09:39.973Z,94566.16
2024-04-25T23:12:12.832Z,94570.56
2024-04-25T23:14:45.674Z,94561.38
2024-04-25T23:17:15.736Z,94563.63
2024-04-25T23:19:48.302Z,94556.38
2024-04-25T23:22:18.359Z,94576.84
2024-04-25T23:24:48.164Z,94576.09
2024-04-25T23:27:22.723Z,94572.31
2024-04-25T23:29:52.666Z,94574.63
2024-04-25T23:32:23.235Z,94576.50
2024-04-25T23:34:53.057Z,94572.97
2024-04-25T23:37:23.046Z,94571.03
2024-04-25T23:39:52.834Z,94563.13
2024-04-25T23:42:25.717Z,94568.13
2024-04-25T23:44:55.472Z,94568.25
2024-04-25T23:47:25.416Z,94575.44
2024-04-25T23:49:55.334Z,94578.03
2024-04-25T23:52:25.666Z,94571.25
2024-04-25T23:54:52.859Z,94586.25
2024-04-25T23:57:25.340Z,94580.03
2024-04-25T23:59:55.335Z,94585.09
